Date,TemperatureHighF,TemperatureAvgF,TemperatureLowF,DewpointHighF,DewpointAvgF,DewpointLowF,HumidityHigh,HumidityAvg,HumidityLow,PressureMaxIn,PressureMinIn,WindSpeedMaxMPH,WindSpeedAvgMPH,GustSpeedMaxMPH,PrecipitationSumIn
2013-3-1,45.1,38.7,32.8,29.0,27.1,22.0,70,64,53,29.86,29.68,21,9,0,0.00
2013-3-2,36.3,31.6,29.0,24.0,21.4,19.0,73,66,54,29.87,29.79,20,9,0,0.00
2013-3-3,40.2,32.1,27.9,20.0,18.1,15.0,71,57,43,29.89,29.76,21,11,0,0.00
2013-3-4,41.5,32.8,26.3,19.0,15.7,13.0,61,50,36,30.00,29.89,25,10,0,0.00
2013-3-5,47.7,38.8,29.5,29.0,17.2,10.0,85,44,24,30.03,29.76,24,6,0,0.00
2013-3-6,38.8,35.0,32.5,34.0,32.2,30.0,96,90,73,29.97,29.61,25,10,0,0.38
2013-3-7,44.8,38.8,33.7,30.0,27.6,25.0,79,65,50,30.13,29.98,27,10,0,0.27
2013-3-8,47.3,39.8,34.7,30.0,26.8,24.0,72,60,47,30.25,30.10,30,14,0,0.00
2013-3-9,57.8,44.0,31.9,29.0,23.4,19.0,71,48,25,30.32,30.21,13,5,0,0.00
2013-3-10,61.6,49.0,34.7,30.0,23.2,19.0,64,39,23,30.27,30.15,18,6,0,0.00
2013-3-11,57.2,50.2,40.6,48.0,41.4,27.0,93,73,46,30.17,29.85,24,9,0,0.00
2013-3-12,56.2,50.6,39.6,53.0,43.1,29.0,98,77,57,29.92,29.68,24,10,0,1.37
2013-3-13,47.6,39.8,31.6,30.0,24.5,19.0,68,55,37,30.02,29.86,24,8,0,0.00
2013-3-14,44.3,35.6,29.5,20.0,16.8,14.0,61,47,34,30.09,30.00,37,12,0,0.00
2013-3-15,58.0,43.0,30.3,34.0,23.1,16.0,63,47,29,30.05,29.73,20,5,0,0.00
2013-3-16,55.6,45.0,35.5,38.0,33.4,31.0,85,65,50,29.88,29.59,14,4,0,0.01
2013-3-17,38.3,36.2,32.2,32.0,26.4,21.0,89,69,50,30.23,29.87,10,2,0,0.00
2013-3-18,36.6,33.5,29.5,34.0,29.4,19.0,97,86,52,30.28,29.86,15,4,0,0.39
2013-3-19,58.9,43.0,33.2,43.0,28.4,10.0,99,66,22,29.87,29.66,21,6,0,0.01
2013-3-20,51.1,41.0,32.9,26.0,16.1,11.0,67,38,24,29.95,29.72,16,7,0,0.00
2013-3-21,35.0,31.2,26.4,26.0,14.3,8.0,75,51,36,29.86,29.73,23,10,0,0.00
2013-3-22,45.5,34.9,26.4,20.0,16.2,10.0,58,47,35,29.96,29.84,21,8,0,0.00
2013-3-23,52.6,40.2,26.6,26.0,20.9,17.0,68,48,29,30.00,29.87,18,5,0,0.00
2013-3-24,40.1,35.4,30.1,31.0,22.3,18.0,93,61,44,29.96,29.61,11,1,0,0.00
2013-3-25,38.6,34.0,31.8,35.0,32.2,30.0,96,93,85,29.66,29.49,8,2,0,0.41
2013-3-26,49.9,39.8,32.2,34.0,30.2,26.0,96,72,41,29.95,29.66,22,8,0,0.05
2013-3-27,49.4,41.0,34.4,32.0,27.5,25.0,73,60,43,30.08,29.95,24,10,0,0.00
2013-3-28,48.0,41.3,35.5,33.0,28.9,25.0,70,62,51,30.19,30.04,24,8,0,0.00
2013-3-29,55.4,45.5,37.5,33.0,28.8,23.0,73,54,34,30.22,30.10,22,4,0,0.00
2013-3-30,58.7,48.0,37.3,30.0,23.6,17.0,65,41,23,30.19,30.06,14,1,0,0.00
2013-3-31,48.3,45.2,41.3,47.0,36.8,21.0,97,75,35,30.06,29.71,9,1,0,0.07